Humidity-temperature Sensor

Selected Measurement Type: Air Temperature

 
Air Temperature [°C]     6 entries per hour
Showing data from 8/15/2016 (00:00:00 Z) to 8/14/2016 (00:01:00 Z)
Previous Next [ Day | 3-Days | 7-Days ]
First Last
Prev [ Day | 3-Days | 7-Days ] Next
First Last

Start Time:     :
End Time:     :     
Time (in GMT) :00 :50 :40 :30 :20 :10
Previous Next [ Day | 3-Days | 7-Days ]
First Last
Prev [ Day | 3-Days | 7-Days ] Next
First Last


123 => good data
MM => data is determined as missing
-- => data not received/configured
Back to Top Back to Top
8/15/2016 00:00 to 23:10 20.29 20.30 20.36 20.39 20.40 20.41
8/14/2016 23:00 to 22:10 20.44 20.41 20.35 20.35 20.36 20.32
8/14/2016 22:00 to 21:10 20.33 20.31 20.27 20.26 20.25 20.23
8/14/2016 21:00 to 20:10 20.18 20.19 20.15 20.12 20.10 20.08
8/14/2016 20:00 to 19:10 20.07 20.06 20.03 20.00 19.97 19.97
8/14/2016 19:00 to 18:10 19.98 19.94 19.96 19.93 19.87 19.85
8/14/2016 18:00 to 17:10 19.83 19.81 19.80 19.80 19.76 19.74
8/14/2016 17:00 to 16:10 19.76 19.75 19.75 19.74 19.68 19.72
8/14/2016 16:00 to 15:10 -- -- -- -- -- --
8/14/2016 15:00 to 14:10 19.72 19.77 19.70 19.80 19.83 19.67
8/14/2016 14:00 to 13:10 19.62 19.59 19.57 19.57 19.55 19.44
8/14/2016 13:00 to 12:10 19.35 19.34 19.30 19.25 19.22 19.14
8/14/2016 12:00 to 11:10 19.12 19.02 18.98 18.94 18.86 18.82
8/14/2016 11:00 to 10:10 18.77 18.74 18.86 18.99 18.98 18.92
8/14/2016 10:00 to 9:10 18.95 18.99 19.00 18.97 18.87 18.83
8/14/2016 09:00 to 8:10 18.69 18.78 18.90 18.93 19.02 19.04
8/14/2016 08:00 to 7:10 19.11 19.21 19.20 19.18 19.21 19.22
8/14/2016 07:00 to 6:10 19.27 19.43 19.50 19.60 19.61 19.70
8/14/2016 06:00 to 5:10 19.76 19.81 19.67 19.64 19.43 19.45
8/14/2016 05:00 to 4:10 19.46 19.44 19.44 19.46 19.47 19.49
8/14/2016 04:00 to 3:10 19.52 19.53 19.54 19.55 19.58 19.59
8/14/2016 03:00 to 2:10 19.61 19.62 19.64 19.63 19.63 19.62
8/14/2016 02:00 to 1:10 19.62 19.62 19.65 19.69 19.71 19.74
8/14/2016 01:00 to 0:10 19.75 19.79 19.81 19.84 19.92 20.00